Time;durP1;ratioP1;P1;durP2;ratioP2;P2;SDS_P1;SDS_P2;PMS_P1;PMS_P2;Temp;Humidity;BMP_temperature;BMP_pressure;BME280_temperature;BME280_humidity;BME280_pressure;Samples;Min_cycle;Max_cycle;Signal;HPM_P1;HPM_P2
2021/11/22 00:00:45;;;;;;;16.93;3.10;;;;;;;;;;5064961;28;20014;-89
2021/11/22 00:03:10;;;;;;;13.43;2.90;;;;;;;;;;5064623;28;20048;-89
2021/11/22 00:05:35;;;;;;;16.33;3.03;;;;;;;;;;5065022;28;20100;-88
2021/11/22 00:08:01;;;;;;;8.53;2.60;;;;;;;;;;5068467;28;20021;-88
2021/11/22 00:10:26;;;;;;;11.03;3.20;;;;;;;;;;5068519;28;20025;-89
2021/11/22 00:12:52;;;;;;;7.70;2.47;;;;;;;;;;5034840;28;20021;-88
2021/11/22 00:15:17;;;;;;;11.23;2.47;;;;;;;;;;5034536;28;20454;-89
2021/11/22 00:17:43;;;;;;;7.83;2.37;;;;;;;;;;5034792;28;20010;-89
2021/11/22 00:20:10;;;;;;;12.00;2.73;;;;;;;;;;5067849;28;20021;-88
2021/11/22 00:22:35;;;;;;;9.93;2.53;;;;;;;;;;5068141;28;20013;-89
2021/11/22 00:25:00;;;;;;;10.30;2.60;;;;;;;;;;5068269;28;20021;-89
2021/11/22 00:27:26;;;;;;;15.87;3.30;;;;;;;;;;5068167;28;20013;-89
2021/11/22 00:29:51;;;;;;;6.90;2.27;;;;;;;;;;5035408;28;20013;-88
2021/11/22 00:32:16;;;;;;;7.30;2.30;;;;;;;;;;5034408;28;20017;-88
2021/11/22 00:34:42;;;;;;;10.53;2.27;;;;;;;;;;5067808;28;20014;-89
2021/11/22 00:37:16;;;;;;;9.80;2.17;;;;;;;;;;5035645;28;20025;-89
2021/11/22 00:39:41;;;;;;;8.93;2.67;;;;;;;;;;5035804;28;20013;-88
2021/11/22 00:42:07;;;;;;;4.30;2.17;;;;;;;;;;5067882;28;20421;-89
2021/11/22 00:44:33;;;;;;;7.80;1.93;;;;;;;;;;5067467;28;20067;-89
2021/11/22 00:46:58;;;;;;;10.47;2.17;;;;;;;;;;5067743;28;20404;-89
2021/11/22 00:49:23;;;;;;;8.97;2.20;;;;;;;;;;5067581;28;20076;-90
2021/11/22 00:51:48;;;;;;;8.97;2.23;;;;;;;;;;5067465;28;20024;-89
2021/11/22 00:54:14;;;;;;;4.20;1.87;;;;;;;;;;5067764;28;20028;-89
2021/11/22 00:56:39;;;;;;;6.83;1.83;;;;;;;;;;5067096;28;20029;-89
2021/11/22 00:59:04;;;;;;;9.67;2.80;;;;;;;;;;5067478;28;20024;-88
2021/11/22 01:01:29;;;;;;;6.97;2.03;;;;;;;;;;5067495;28;20018;-89
2021/11/22 01:03:54;;;;;;;13.60;2.63;;;;;;;;;;5067659;28;20458;-89
2021/11/22 01:06:20;;;;;;;7.83;1.87;;;;;;;;;;5035117;28;20036;-89
2021/11/22 01:08:45;;;;;;;5.30;1.63;;;;;;;;;;5067142;28;20017;-89
2021/11/22 01:11:10;;;;;;;9.73;2.10;;;;;;;;;;5067231;28;20017;-89
2021/11/22 01:13:35;;;;;;;7.20;1.93;;;;;;;;;;5066611;28;20100;-89
2021/11/22 01:16:01;;;;;;;7.53;2.20;;;;;;;;;;5033780;28;20117;-89
2021/11/22 01:18:26;;;;;;;8.30;2.40;;;;;;;;;;5065914;28;20013;-89
2021/11/22 01:20:51;;;;;;;9.80;2.10;;;;;;;;;;5033832;28;20018;-89
2021/11/22 01:23:16;;;;;;;3.53;1.47;;;;;;;;;;5033975;28;20025;-89
2021/11/22 01:25:42;;;;;;;6.80;2.43;;;;;;;;;;5066936;28;20056;-89
2021/11/22 01:28:08;;;;;;;12.73;1.67;;;;;;;;;;5066543;28;20061;-89
2021/11/22 01:30:33;;;;;;;6.77;1.80;;;;;;;;;;5034594;28;20013;-89
2021/11/22 01:32:59;;;;;;;11.50;1.90;;;;;;;;;;5067028;28;20025;-88
2021/11/22 01:35:24;;;;;;;9.30;2.00;;;;;;;;;;5066754;28;20025;-89
2021/11/22 01:37:49;;;;;;;6.27;1.73;;;;;;;;;;5066414;28;20083;-89
2021/11/22 01:40:16;;;;;;;11.30;1.53;;;;;;;;;;5066982;28;20036;-89
2021/11/22 01:42:41;;;;;;;10.43;2.23;;;;;;;;;;5066616;28;20108;-89
2021/11/22 01:45:08;;;;;;;8.87;1.70;;;;;;;;;;5066385;28;20099;-89
2021/11/22 01:47:33;;;;;;;8.10;1.90;;;;;;;;;;5066329;28;20492;-88
2021/11/22 01:50:01;;;;;;;13.00;2.23;;;;;;;;;;5029786;28;20029;-89
2021/11/22 01:52:27;;;;;;;6.20;1.80;;;;;;;;;;5031650;28;20091;-89
2021/11/22 01:54:52;;;;;;;4.60;1.20;;;;;;;;;;5066337;28;20013;-89
2021/11/22 01:57:17;;;;;;;4.27;1.33;;;;;;;;;;5066251;28;20512;-89
2021/11/22 01:59:43;;;;;;;6.03;1.67;;;;;;;;;;5066303;28;20461;-89
2021/11/22 02:02:09;;;;;;;6.17;1.20;;;;;;;;;;5032640;28;20049;-89
2021/11/22 02:04:34;;;;;;;5.93;1.30;;;;;;;;;;5066018;28;20020;-89
2021/11/22 02:06:59;;;;;;;5.50;1.13;;;;;;;;;;5032688;28;20029;-89
2021/11/22 02:09:24;;;;;;;12.17;1.00;;;;;;;;;;5034217;28;20029;-89
2021/11/22 02:11:50;;;;;;;3.63;1.00;;;;;;;;;;5033696;28;20021;-89
2021/11/22 02:14:15;;;;;;;4.63;0.93;;;;;;;;;;5032629;28;20021;-89
2021/11/22 02:16:40;;;;;;;4.87;1.50;;;;;;;;;;5066157;28;20033;-89
2021/11/22 02:19:06;;;;;;;8.00;1.20;;;;;;;;;;5065959;28;20112;-88
2021/11/22 02:21:31;;;;;;;7.27;1.33;;;;;;;;;;5032744;28;20018;-90
2021/11/22 02:23:57;;;;;;;3.63;1.77;;;;;;;;;;5066024;28;20108;-90
2021/11/22 02:26:22;;;;;;;5.60;1.10;;;;;;;;;;5065422;28;20033;-89
2021/11/22 02:28:48;;;;;;;10.07;1.27;;;;;;;;;;5032346;28;20097;-89
2021/11/22 02:31:13;;;;;;;3.97;1.03;;;;;;;;;;5065794;28;20028;-90
2021/11/22 02:33:38;;;;;;;5.27;1.00;;;;;;;;;;5032498;28;20025;-89
2021/11/22 02:36:03;;;;;;;5.13;1.10;;;;;;;;;;5032359;28;20022;-88
2021/11/22 02:38:30;;;;;;;6.07;1.17;;;;;;;;;;5059828;28;20113;-90
2021/11/22 02:40:56;;;;;;;5.90;1.13;;;;;;;;;;5024926;28;20049;-89
2021/11/22 02:43:21;;;;;;;3.57;1.37;;;;;;;;;;5032012;28;20048;-89
2021/11/22 02:45:47;;;;;;;10.30;1.53;;;;;;;;;;5032271;28;20496;-89
2021/11/22 02:48:12;;;;;;;3.73;0.97;;;;;;;;;;5065332;28;20024;-89
2021/11/22 02:50:37;;;;;;;5.60;1.00;;;;;;;;;;5033341;28;20524;-90
2021/11/22 02:53:03;;;;;;;4.17;1.00;;;;;;;;;;5065914;28;20496;-90
2021/11/22 02:55:28;;;;;;;3.37;0.90;;;;;;;;;;5032177;28;20022;-89
2021/11/22 02:57:53;;;;;;;8.20;1.27;;;;;;;;;;5065852;28;20104;-89
2021/11/22 03:00:23;;;;;;;4.10;1.00;;;;;;;;;;5064978;28;20025;-90
2021/11/22 03:02:49;;;;;;;3.60;1.10;;;;;;;;;;5032240;28;20036;-90
2021/11/22 03:05:14;;;;;;;12.20;1.20;;;;;;;;;;5032209;28;20517;-90
2021/11/22 03:07:39;;;;;;;4.73;0.80;;;;;;;;;;5065427;28;20021;-89
2021/11/22 03:10:06;;;;;;;2.97;1.00;;;;;;;;;;5032394;28;20104;-89
2021/11/22 03:12:31;;;;;;;5.20;1.00;;;;;;;;;;5033743;28;20369;-90
2021/11/22 03:14:56;;;;;;;4.07;0.90;;;;;;;;;;5031945;28;20032;-89
2021/11/22 03:17:22;;;;;;;3.60;0.77;;;;;;;;;;5031254;28;20052;-90
2021/11/22 03:19:47;;;;;;;2.63;1.00;;;;;;;;;;5065527;28;20061;-90
2021/11/22 03:22:12;;;;;;;2.50;0.80;;;;;;;;;;5032033;28;20017;-89
2021/11/22 03:24:37;;;;;;;3.47;1.00;;;;;;;;;;5065435;28;20014;-90
2021/11/22 03:27:03;;;;;;;5.10;0.80;;;;;;;;;;5031933;28;20112;-90
2021/11/22 03:29:29;;;;;;;4.47;1.13;;;;;;;;;;5027221;28;20367;-89
2021/11/22 03:31:54;;;;;;;1.23;0.70;;;;;;;;;;5023057;28;20022;-89
2021/11/22 03:34:20;;;;;;;4.03;0.73;;;;;;;;;;5065300;28;20033;-88
2021/11/22 03:36:46;;;;;;;3.93;0.90;;;;;;;;;;5032022;28;20017;-90
2021/11/22 03:39:16;;;;;;;3.50;0.80;;;;;;;;;;5065341;28;20022;-89
2021/11/22 03:41:41;;;;;;;3.73;0.77;;;;;;;;;;5033335;28;20025;-89
2021/11/22 03:44:14;;;;;;;4.30;0.87;;;;;;;;;;5035786;28;20014;-89
2021/11/22 03:46:39;;;;;;;;;;;;;;;;;;5069466;28;20376;-90
2021/11/22 03:49:05;;;;;;;2.83;0.80;;;;;;;;;;5036820;28;19905;-89
2021/11/22 03:51:30;;;;;;;4.70;0.83;;;;;;;;;;5068777;28;20018;-89
2021/11/22 03:53:55;;;;;;;3.90;1.00;;;;;;;;;;5035708;28;20013;-89
2021/11/22 03:56:20;;;;;;;4.57;1.10;;;;;;;;;;5035390;28;20024;-90
2021/11/22 03:58:46;;;;;;;2.60;0.80;;;;;;;;;;5068426;28;20072;-90
2021/11/22 04:01:11;;;;;;;3.23;0.70;;;;;;;;;;5036494;28;20053;-89
2021/11/22 04:03:36;;;;;;;4.40;0.90;;;;;;;;;;5068755;28;20037;-89
2021/11/22 04:06:02;;;;;;;4.43;0.77;;;;;;;;;;5035371;28;20073;-90
2021/11/22 04:08:27;;;;;;;3.73;0.83;;;;;;;;;;5068710;28;20032;-90
2021/11/22 04:10:52;;;;;;;2.10;0.60;;;;;;;;;;5054496;28;20517;-90
2021/11/22 04:13:17;;;;;;;1.15;0.57;;;;;;;;;;5068355;28;20465;-90
2021/11/22 04:15:43;;;;;;;3.70;1.00;;;;;;;;;;5034798;28;20013;-89
2021/11/22 04:18:12;;;;;;;5.07;0.80;;;;;;;;;;5035059;28;20021;-89
2021/11/22 04:20:38;;;;;;;1.83;0.93;;;;;;;;;;5068290;28;20104;-90
2021/11/22 04:23:03;;;;;;;1.48;0.60;;;;;;;;;;5036225;28;20437;-89
2021/11/22 04:25:29;;;;;;;1.90;0.60;;;;;;;;;;5036079;28;20029;-90
2021/11/22 04:27:54;;;;;;;5.40;0.70;;;;;;;;;;5068199;28;20045;-90
2021/11/22 04:30:19;;;;;;;2.35;0.68;;;;;;;;;;5068106;28;20027;-90
2021/11/22 04:32:45;;;;;;;2.80;0.80;;;;;;;;;;5034849;28;20013;-90
2021/11/22 04:35:11;;;;;;;4.45;0.80;;;;;;;;;;5068275;28;20037;-89
2021/11/22 04:37:36;;;;;;;4.05;0.60;;;;;;;;;;5035788;28;20070;-90
2021/11/22 04:40:03;;;;;;;3.97;0.80;;;;;;;;;;5034715;28;20475;-90
2021/11/22 04:42:28;;;;;;;5.35;0.93;;;;;;;;;;5035648;28;20021;-90
2021/11/22 04:44:53;;;;;;;1.45;0.57;;;;;;;;;;5034547;28;20017;-90
2021/11/22 04:47:21;;;;;;;8.30;0.75;;;;;;;;;;5067923;28;20021;-90
2021/11/22 04:49:50;;;;;;;6.68;0.98;;;;;;;;;;5034271;28;20473;-90
2021/11/22 04:52:16;;;;;;;1.33;0.77;;;;;;;;;;5067699;28;20477;-90
2021/11/22 04:54:42;;;;;;;3.27;0.87;;;;;;;;;;5034519;28;20032;-90
2021/11/22 04:57:07;;;;;;;0.77;0.50;;;;;;;;;;5067538;28;20111;-90
2021/11/22 04:59:33;;;;;;;9.88;0.90;;;;;;;;;;5035417;28;20013;-90
2021/11/22 05:01:58;;;;;;;4.87;1.23;;;;;;;;;;5067532;28;20036;-90
2021/11/22 05:04:23;;;;;;;5.23;0.50;;;;;;;;;;5067009;28;20079;-90
2021/11/22 05:06:49;;;;;;;1.20;0.63;;;;;;;;;;5067146;28;20491;-90
2021/11/22 05:09:15;;;;;;;6.17;0.90;;;;;;;;;;5034266;28;20104;-89
2021/11/22 05:11:42;;;;;;;2.63;0.70;;;;;;;;;;5034019;28;20045;-91
2021/11/22 05:14:07;;;;;;;1.50;0.60;;;;;;;;;;5032639;28;20032;-90
2021/11/22 05:16:32;;;;;;;2.97;0.77;;;;;;;;;;5033883;28;20017;-90
2021/11/22 05:18:58;;;;;;;0.90;0.70;;;;;;;;;;5067434;28;20103;-90
2021/11/22 05:21:25;;;;;;;3.87;0.73;;;;;;;;;;5035126;28;20412;-90
2021/11/22 05:23:54;;;;;;;2.28;0.70;;;;;;;;;;5067223;28;20183;-90
2021/11/22 05:26:19;;;;;;;2.42;0.80;;;;;;;;;;5035090;28;20025;-91
2021/11/22 05:28:44;;;;;;;4.30;0.80;;;;;;;;;;5067047;28;20370;-90
2021/11/22 05:31:09;;;;;;;4.90;1.00;;;;;;;;;;5033478;28;20032;-90
2021/11/22 05:33:34;;;;;;;1.92;0.75;;;;;;;;;;5066688;28;20030;-90
2021/11/22 05:36:00;;;;;;;3.95;0.90;;;;;;;;;;5033817;28;20021;-90
2021/11/22 05:38:25;;;;;;;4.20;1.02;;;;;;;;;;5025268;28;20025;-90
2021/11/22 05:40:50;;;;;;;2.33;0.90;;;;;;;;;;5027839;28;20041;-90
2021/11/22 05:43:15;;;;;;;3.07;1.00;;;;;;;;;;5027513;28;20466;-90
2021/11/22 05:45:40;;;;;;;4.73;1.20;;;;;;;;;;5025726;28;20025;-89
2021/11/22 05:48:07;;;;;;;4.50;1.20;;;;;;;;;;5066780;28;20025;-90
2021/11/22 05:50:33;;;;;;;3.97;1.10;;;;;;;;;;5034604;28;20492;-90
2021/11/22 05:53:00;;;;;;;5.13;1.43;;;;;;;;;;5064263;28;20025;-91
2021/11/22 05:55:38;;;;;;;4.60;1.10;;;;;;;;;;5021703;28;20018;-89
2021/11/22 05:58:05;;;;;;;2.90;1.38;;;;;;;;;;5066330;28;20028;-89
2021/11/22 06:00:31;;;;;;;4.80;1.47;;;;;;;;;;5033122;28;20485;-89
2021/11/22 06:02:56;;;;;;;4.60;1.57;;;;;;;;;;5066126;28;20013;-90
2021/11/22 06:05:21;;;;;;;6.20;1.17;;;;;;;;;;5065787;28;20469;-89
2021/11/22 06:07:47;;;;;;;2.23;1.27;;;;;;;;;;5066407;28;20017;-90
2021/11/22 06:10:12;;;;;;;3.87;1.30;;;;;;;;;;5032745;28;20045;-90
2021/11/22 06:12:37;;;;;;;5.23;1.60;;;;;;;;;;5032955;28;20013;-90
2021/11/22 06:15:06;;;;;;;2.53;1.07;;;;;;;;;;5066247;28;20522;-90
2021/11/22 06:17:31;;;;;;;3.37;1.40;;;;;;;;;;5066190;28;20491;-89
2021/11/22 06:19:56;;;;;;;4.37;1.07;;;;;;;;;;5066212;28;20009;-89
2021/11/22 06:22:22;;;;;;;1.77;1.17;;;;;;;;;;5065992;28;20017;-89
2021/11/22 06:24:47;;;;;;;4.43;1.20;;;;;;;;;;5032840;28;20018;-90
2021/11/22 06:27:14;;;;;;;4.47;1.03;;;;;;;;;;5066023;28;20048;-90
2021/11/22 06:29:39;;;;;;;3.63;1.40;;;;;;;;;;5033615;28;20366;-91
2021/11/22 06:32:10;;;;;;;6.00;1.13;;;;;;;;;;5033929;28;20067;-90
2021/11/22 06:34:35;;;;;;;3.00;1.20;;;;;;;;;;5033725;28;20484;-90
2021/11/22 06:37:01;;;;;;;6.50;1.40;;;;;;;;;;5065763;28;20018;-90
2021/11/22 06:39:26;;;;;;;4.40;1.20;;;;;;;;;;5065869;28;20021;-90
2021/11/22 06:41:51;;;;;;;3.83;1.40;;;;;;;;;;5065926;28;20021;-89
2021/11/22 06:44:19;;;;;;;3.10;0.98;;;;;;;;;;5065690;28;20469;-90
2021/11/22 06:46:48;;;;;;;3.83;1.42;;;;;;;;;;5065858;28;20029;-89
2021/11/22 06:49:13;;;;;;;4.28;1.10;;;;;;;;;;5033537;28;20091;-90
2021/11/22 06:51:38;;;;;;;3.00;1.08;;;;;;;;;;5032354;28;20029;-90
2021/11/22 06:54:03;;;;;;;5.68;2.10;;;;;;;;;;5033237;28;20427;-89
2021/11/22 06:56:29;;;;;;;4.78;1.50;;;;;;;;;;5031468;28;20075;-89
2021/11/22 06:58:54;;;;;;;5.80;1.80;;;;;;;;;;5065519;28;20067;-89
2021/11/22 07:01:19;;;;;;;7.13;1.50;;;;;;;;;;5072810;28;20473;-89
2021/11/22 07:03:45;;;;;;;5.97;1.95;;;;;;;;;;5032675;28;20029;-89
2021/11/22 07:06:13;;;;;;;5.93;2.37;;;;;;;;;;5031408;28;20495;-89
2021/11/22 07:08:38;;;;;;;4.88;2.10;;;;;;;;;;5061022;28;20025;-88
2021/11/22 07:11:03;;;;;;;4.25;1.88;;;;;;;;;;5031965;28;20056;-89
2021/11/22 07:13:31;;;;;;;4.68;1.23;;;;;;;;;;5065483;28;20028;-89
2021/11/22 07:15:56;;;;;;;7.00;2.08;;;;;;;;;;5065626;28;20017;-89
2021/11/22 07:18:22;;;;;;;3.53;1.95;;;;;;;;;;5037132;28;20025;-89
2021/11/22 07:20:47;;;;;;;8.98;2.63;;;;;;;;;;5036127;28;20524;-89
2021/11/22 07:23:14;;;;;;;16.48;2.65;;;;;;;;;;5060416;28;20028;-89
2021/11/22 07:25:39;;;;;;;7.45;2.30;;;;;;;;;;5031285;28;20393;-89
2021/11/22 07:28:04;;;;;;;9.77;2.47;;;;;;;;;;5035700;28;20017;-89
2021/11/22 07:30:30;;;;;;;5.20;2.08;;;;;;;;;;5035587;28;20017;-89
2021/11/22 07:32:55;;;;;;;3.90;1.83;;;;;;;;;;5035643;28;20022;-90
2021/11/22 07:35:21;;;;;;;7.57;2.28;;;;;;;;;;5068585;28;20025;-89
2021/11/22 07:37:48;;;;;;;8.93;2.53;;;;;;;;;;5035328;28;20104;-90
2021/11/22 07:40:13;;;;;;;8.82;2.42;;;;;;;;;;5068975;28;20060;-89
2021/11/22 07:42:39;;;;;;;9.60;2.60;;;;;;;;;;5035554;28;20049;-89
2021/11/22 07:45:05;;;;;;;6.00;2.20;;;;;;;;;;5036030;28;20021;-87
2021/11/22 07:47:30;;;;;;;5.90;2.10;;;;;;;;;;5069007;28;20566;-90
2021/11/22 07:49:55;;;;;;;10.97;2.33;;;;;;;;;;5068908;28;20025;-90
2021/11/22 07:52:22;;;;;;;5.93;2.60;;;;;;;;;;5068761;28;20026;-91
2021/11/22 07:54:48;;;;;;;7.13;2.10;;;;;;;;;;5021860;28;20410;-92
2021/11/22 07:57:13;;;;;;;8.93;3.30;;;;;;;;;;5068669;28;20107;-91
2021/11/22 07:59:38;;;;;;;4.77;2.97;;;;;;;;;;5065007;28;20029;-91
2021/11/22 08:02:04;;;;;;;3.03;1.90;;;;;;;;;;5035387;28;20114;-91
2021/11/22 08:04:29;;;;;;;6.93;3.25;;;;;;;;;;5065471;28;20457;-91
2021/11/22 08:06:59;;;;;;;7.20;3.08;;;;;;;;;;5067597;28;20118;-90
2021/11/22 08:09:30;;;;;;;5.10;2.90;;;;;;;;;;5031783;28;20049;-91
2021/11/22 08:12:25;;;;;;;6.17;3.47;;;;;;;;;;5029919;28;20408;-91
2021/11/22 08:14:50;;;;;;;5.85;3.15;;;;;;;;;;5025600;28;20032;-90
2021/11/22 08:17:16;;;;;;;8.40;3.70;;;;;;;;;;5035156;28;20025;-91
2021/11/22 08:19:41;;;;;;;10.45;3.63;;;;;;;;;;5068610;28;20048;-90
2021/11/22 08:22:07;;;;;;;10.48;3.55;;;;;;;;;;5034758;28;20036;-90
2021/11/22 08:24:32;;;;;;;9.77;3.70;;;;;;;;;;5068700;28;20017;-91
2021/11/22 08:26:57;;;;;;;6.63;2.75;;;;;;;;;;5068265;28;20025;-90
2021/11/22 08:29:22;;;;;;;8.40;2.83;;;;;;;;;;5064678;28;20026;-91
2021/11/22 08:31:48;;;;;;;10.57;3.67;;;;;;;;;;5031425;28;20053;-91
2021/11/22 08:34:13;;;;;;;4.35;2.42;;;;;;;;;;5034371;28;20108;-91
2021/11/22 08:36:38;;;;;;;10.95;2.88;;;;;;;;;;5022860;28;20461;-91
2021/11/22 08:39:04;;;;;;;7.50;2.65;;;;;;;;;;5035024;28;20108;-90
2021/11/22 08:41:29;;;;;;;5.82;2.40;;;;;;;;;;5035835;28;20051;-90
2021/11/22 08:43:55;;;;;;;6.83;1.80;;;;;;;;;;5035313;28;20473;-91
2021/11/22 08:46:20;;;;;;;11.40;2.10;;;;;;;;;;5067956;28;20071;-91
2021/11/22 08:48:45;;;;;;;6.83;2.07;;;;;;;;;;5034643;28;20033;-91
2021/11/22 08:51:10;;;;;;;3.73;1.67;;;;;;;;;;5034437;28;20472;-91
2021/11/22 08:53:36;;;;;;;6.10;2.20;;;;;;;;;;5034690;28;20013;-90
2021/11/22 08:56:01;;;;;;;3.80;1.65;;;;;;;;;;5034664;28;20072;-91
2021/11/22 08:58:26;;;;;;;7.33;2.17;;;;;;;;;;5034513;28;20017;-90
2021/11/22 09:00:52;;;;;;;5.40;1.80;;;;;;;;;;5034505;28;20017;-91
2021/11/22 09:03:17;;;;;;;3.78;1.63;;;;;;;;;;5068081;28;20029;-91
2021/11/22 09:05:42;;;;;;;4.75;2.00;;;;;;;;;;5035052;28;20469;-90
2021/11/22 09:08:08;;;;;;;10.83;2.00;;;;;;;;;;5067817;28;20029;-91
2021/11/22 09:10:33;;;;;;;7.30;1.98;;;;;;;;;;5035623;28;20017;-90
2021/11/22 09:12:58;;;;;;;5.10;2.00;;;;;;;;;;5035602;28;20115;-90
2021/11/22 09:15:24;;;;;;;3.88;1.50;;;;;;;;;;5068639;28;20017;-92
2021/11/22 09:17:49;;;;;;;6.43;1.90;;;;;;;;;;5064988;28;20025;-91
2021/11/22 09:20:15;;;;;;;3.37;1.80;;;;;;;;;;5040989;28;20020;-91
2021/11/22 09:22:40;;;;;;;3.47;1.57;;;;;;;;;;5040724;28;20384;-90
2021/11/22 09:25:07;;;;;;;8.07;1.87;;;;;;;;;;5033641;28;20029;-90
2021/11/22 09:27:32;;;;;;;9.17;2.70;;;;;;;;;;5034626;28;20480;-91
2021/11/22 09:29:58;;;;;;;6.17;2.27;;;;;;;;;;5067210;28;20048;-91
2021/11/22 09:32:23;;;;;;;4.27;1.87;;;;;;;;;;5074328;28;20025;-90
2021/11/22 09:34:49;;;;;;;4.23;1.90;;;;;;;;;;5033809;28;20038;-91
2021/11/22 09:37:14;;;;;;;2.97;1.60;;;;;;;;;;5036007;28;20025;-90
2021/11/22 09:39:39;;;;;;;4.37;1.80;;;;;;;;;;5032583;28;20044;-91
2021/11/22 09:42:04;;;;;;;2.30;1.53;;;;;;;;;;5039460;28;20024;-91
2021/11/22 09:44:30;;;;;;;7.53;2.03;;;;;;;;;;5033313;28;20030;-91
2021/11/22 09:46:55;;;;;;;3.43;1.67;;;;;;;;;;5066783;28;20030;-91
2021/11/22 09:49:21;;;;;;;5.20;1.40;;;;;;;;;;5066936;28;20029;-91
2021/11/22 09:51:46;;;;;;;10.88;1.40;;;;;;;;;;5066915;28;20057;-91
2021/11/22 09:54:11;;;;;;;5.88;1.50;;;;;;;;;;5033540;28;20026;-91
2021/11/22 09:56:38;;;;;;;7.15;1.52;;;;;;;;;;5033368;28;20025;-90
2021/11/22 09:59:03;;;;;;;2.65;1.30;;;;;;;;;;5033453;28;20014;-91
2021/11/22 10:01:34;;;;;;;4.68;1.17;;;;;;;;;;5066271;28;20109;-91
2021/11/22 10:04:09;;;;;;;4.38;1.35;;;;;;;;;;5034468;28;20034;-91
2021/11/22 10:07:04;;;;;;;5.18;1.55;;;;;;;;;;5034545;28;20091;-91
2021/11/22 10:09:30;;;;;;;3.15;1.25;;;;;;;;;;5024783;28;20037;-91
2021/11/22 10:11:55;;;;;;;4.00;1.10;;;;;;;;;;5033371;28;20029;-92
2021/11/22 10:14:24;;;;;;;3.00;0.98;;;;;;;;;;5059176;28;20083;-91
2021/11/22 10:16:49;;;;;;;6.13;1.10;;;;;;;;;;5033424;28;20025;-91
2021/11/22 10:19:18;;;;;;;4.88;1.10;;;;;;;;;;5033192;28;20041;-90
2021/11/22 10:21:43;;;;;;;5.18;1.10;;;;;;;;;;5032378;28;20071;-92
2021/11/22 10:24:09;;;;;;;3.15;1.17;;;;;;;;;;5032996;28;20021;-91
2021/11/22 10:26:39;;;;;;;3.28;1.23;;;;;;;;;;5066419;28;20025;-91
2021/11/22 10:29:04;;;;;;;3.55;1.00;;;;;;;;;;5066299;28;20022;-91
2021/11/22 10:31:29;;;;;;;2.20;0.70;;;;;;;;;;5066491;28;20032;-91
2021/11/22 10:33:58;;;;;;;2.85;1.00;;;;;;;;;;5031896;28;20484;-90
2021/11/22 10:36:25;;;;;;;4.30;0.88;;;;;;;;;;5028118;28;20036;-91
2021/11/22 10:38:51;;;;;;;1.00;0.47;;;;;;;;;;5026001;28;20017;-91
2021/11/22 10:41:19;;;;;;;3.42;1.00;;;;;;;;;;5032721;28;20018;-90
2021/11/22 10:43:50;;;;;;;6.50;0.80;;;;;;;;;;5032709;28;20017;-91
2021/11/22 10:46:16;;;;;;;2.53;0.60;;;;;;;;;;5032804;28;20025;-91
2021/11/22 10:48:47;;;;;;;1.85;0.63;;;;;;;;;;5032804;28;20079;-91
2021/11/22 10:51:21;;;;;;;2.58;0.80;;;;;;;;;;5065924;28;20021;-89
2021/11/22 10:53:47;;;;;;;4.80;1.10;;;;;;;;;;5049281;28;20119;-91
2021/11/22 10:56:19;;;;;;;3.15;0.88;;;;;;;;;;5065949;28;20022;-92
2021/11/22 10:58:52;;;;;;;2.65;0.90;;;;;;;;;;5032597;28;20021;-91
2021/11/22 11:01:20;;;;;;;2.30;0.80;;;;;;;;;;5065940;28;20080;-91
2021/11/22 11:03:49;;;;;;;4.53;1.00;;;;;;;;;;5032755;28;20060;-91
2021/11/22 11:06:14;;;;;;;2.95;1.20;;;;;;;;;;5065778;28;20175;-91
2021/11/22 11:08:42;;;;;;;5.13;1.33;;;;;;;;;;5065460;28;20120;-91
2021/11/22 11:11:08;;;;;;;0.80;0.60;;;;;;;;;;5033865;28;20028;-91
2021/11/22 11:13:47;;;;;;;1.60;0.90;;;;;;;;;;5032731;28;20037;-92
2021/11/22 11:16:12;;;;;;;3.28;1.00;;;;;;;;;;5053272;28;20025;-91
2021/11/22 11:18:38;;;;;;;3.70;0.70;;;;;;;;;;5052554;28;20033;-91
2021/11/22 11:21:03;;;;;;;3.17;0.82;;;;;;;;;;5031994;28;20539;-91
2021/11/22 11:23:28;;;;;;;2.85;0.70;;;;;;;;;;5065392;28;20021;-91
2021/11/22 11:25:53;;;;;;;3.33;0.75;;;;;;;;;;5032399;28;20048;-91
2021/11/22 11:28:19;;;;;;;2.55;0.75;;;;;;;;;;5032646;28;20033;-91
2021/11/22 11:30:44;;;;;;;3.05;0.70;;;;;;;;;;5065673;28;20026;-91
2021/11/22 11:33:09;;;;;;;3.08;0.80;;;;;;;;;;5025383;28;20099;-91
2021/11/22 11:35:37;;;;;;;1.52;0.60;;;;;;;;;;5025472;28;20120;-92
2021/11/22 11:38:21;;;;;;;3.95;0.50;;;;;;;;;;5033512;28;20354;-92
2021/11/22 11:41:05;;;;;;;0.73;0.35;;;;;;;;;;5033513;28;20481;-91
2021/11/22 11:43:52;;;;;;;2.13;0.60;;;;;;;;;;5033499;28;20017;-91
2021/11/22 11:46:26;;;;;;;1.60;0.82;;;;;;;;;;5065664;28;20022;-92
2021/11/22 11:48:57;;;;;;;3.22;0.50;;;;;;;;;;5048942;28;20441;-91
2021/11/22 11:51:28;;;;;;;5.55;0.60;;;;;;;;;;5032433;28;20112;-92
2021/11/22 11:54:12;;;;;;;1.35;0.60;;;;;;;;;;5032066;28;20018;-91
2021/11/22 11:56:41;;;;;;;2.45;0.60;;;;;;;;;;5032089;28;20087;-91
2021/11/22 11:59:15;;;;;;;8.45;0.68;;;;;;;;;;5032150;28;20028;-91
2021/11/22 12:01:59;;;;;;;5.38;0.70;;;;;;;;;;5032375;28;20028;-91
2021/11/22 12:04:25;;;;;;;3.50;0.75;;;;;;;;;;5024568;28;20381;-91
2021/11/22 12:06:54;;;;;;;4.57;0.93;;;;;;;;;;5068962;28;20033;-91
2021/11/22 12:09:38;;;;;;;3.80;0.90;;;;;;;;;;5035827;28;20461;-91
2021/11/22 12:12:12;;;;;;;2.22;0.63;;;;;;;;;;5035546;28;20059;-91
2021/11/22 12:14:50;;;;;;;2.72;0.82;;;;;;;;;;5052266;28;20116;-91
2021/11/22 12:17:47;;;;;;;3.35;0.60;;;;;;;;;;5035448;28;20025;-91
2021/11/22 12:20:21;;;;;;;2.08;0.60;;;;;;;;;;5035322;28;20025;-91
2021/11/22 12:22:49;;;;;;;2.78;0.70;;;;;;;;;;5032508;28;20030;-92
2021/11/22 12:25:33;;;;;;;5.53;0.65;;;;;;;;;;5030637;28;20113;-91
2021/11/22 12:27:58;;;;;;;3.67;0.73;;;;;;;;;;5038580;28;20029;-92
2021/11/22 12:30:27;;;;;;;5.40;0.93;;;;;;;;;;5068276;28;20033;-92
2021/11/22 12:32:52;;;;;;;1.20;0.30;;;;;;;;;;5035010;28;20024;-91
2021/11/22 12:35:33;;;;;;;2.42;0.70;;;;;;;;;;5035410;28;20021;-91
2021/11/22 12:38:16;;;;;;;4.65;0.70;;;;;;;;;;5068636;28;20491;-91
2021/11/22 12:40:45;;;;;;;5.20;1.05;;;;;;;;;;5035092;28;20033;-91
2021/11/22 12:43:10;;;;;;;2.28;0.70;;;;;;;;;;5034879;28;20029;-92
2021/11/22 12:45:53;;;;;;;3.25;0.82;;;;;;;;;;5035001;28;20079;-90
2021/11/22 12:48:32;;;;;;;2.30;0.90;;;;;;;;;;5035087;28;20091;-91
2021/11/22 12:50:59;;;;;;;2.15;0.70;;;;;;;;;;5068290;28;20088;-91
2021/11/22 12:53:24;;;;;;;1.20;0.63;;;;;;;;;;5054279;28;20025;-91
2021/11/22 12:55:50;;;;;;;4.32;0.90;;;;;;;;;;5034993;28;20021;-91
2021/11/22 12:58:26;;;;;;;2.28;0.70;;;;;;;;;;5068112;28;20044;-92
2021/11/22 13:00:53;;;;;;;1.17;0.60;;;;;;;;;;5055531;28;20370;-92
2021/11/22 13:03:20;;;;;;;3.20;0.90;;;;;;;;;;5034575;28;20025;-91
2021/11/22 13:05:48;;;;;;;4.00;0.70;;;;;;;;;;5067777;28;20067;-91
2021/11/22 13:08:16;;;;;;;7.22;0.95;;;;;;;;;;5067909;28;20049;-91
2021/11/22 13:10:41;;;;;;;4.22;0.70;;;;;;;;;;5034647;28;20014;-91
2021/11/22 13:13:12;;;;;;;1.98;0.80;;;;;;;;;;5035422;28;20044;-91
2021/11/22 13:16:12;;;;;;;4.25;1.10;;;;;;;;;;5034189;28;20116;-91
2021/11/22 13:18:34;;;;;;;2.78;0.80;;;;;;;;;;5035624;28;20032;-91
2021/11/22 13:21:01;;;;;;;2.65;0.52;;;;;;;;;;5067820;28;20067;-91
2021/11/22 13:23:28;;;;;;;2.33;0.75;;;;;;;;;;5067203;28;20013;-91
2021/11/22 13:25:54;;;;;;;2.25;0.60;;;;;;;;;;5034309;28;20535;-91
2021/11/22 13:28:19;;;;;;;2.25;0.50;;;;;;;;;;5034456;28;20025;-92
2021/11/22 13:30:45;;;;;;;1.90;0.40;;;;;;;;;;5050732;28;20017;-93
2021/11/22 13:33:10;;;;;;;1.30;0.40;;;;;;;;;;5034245;28;20032;-92
2021/11/22 13:35:35;;;;;;;1.83;0.60;;;;;;;;;;5067440;28;20025;-93
2021/11/22 13:38:07;;;;;;;1.05;0.40;;;;;;;;;;5066937;28;20022;-92
2021/11/22 13:40:32;;;;;;;3.03;0.50;;;;;;;;;;5038567;28;20013;-93
2021/11/22 13:43:02;;;;;;;0.73;0.38;;;;;;;;;;5031380;28;20435;-91
2021/11/22 13:45:27;;;;;;;2.10;0.55;;;;;;;;;;5066602;28;20032;-92
2021/11/22 13:47:52;;;;;;;2.55;0.47;;;;;;;;;;5033302;28;20014;-92
2021/11/22 13:50:18;;;;;;;1.85;0.60;;;;;;;;;;5066464;28;20021;-93
2021/11/22 13:52:43;;;;;;;1.27;0.60;;;;;;;;;;5033274;28;20072;-92
2021/11/22 13:55:08;;;;;;;1.88;0.40;;;;;;;;;;5066673;28;20029;-92
2021/11/22 13:57:33;;;;;;;3.05;0.57;;;;;;;;;;5066714;28;20021;-91
2021/11/22 13:59:59;;;;;;;1.15;0.40;;;;;;;;;;5033254;28;20156;-92
2021/11/22 14:02:25;;;;;;;3.30;0.50;;;;;;;;;;5066882;28;20097;-93
2021/11/22 14:04:55;;;;;;;3.20;0.50;;;;;;;;;;5033435;28;20104;-92
2021/11/22 14:07:22;;;;;;;3.92;0.73;;;;;;;;;;5066846;28;20021;-90
2021/11/22 14:09:50;;;;;;;3.08;0.70;;;;;;;;;;5033899;28;20037;-92
2021/11/22 14:12:29;;;;;;;1.58;0.40;;;;;;;;;;5067029;28;20025;-93
2021/11/22 14:14:54;;;;;;;2.72;0.50;;;;;;;;;;5066992;28;20031;-95
2021/11/22 14:17:20;;;;;;;3.72;0.60;;;;;;;;;;5034943;28;20081;-94
2021/11/22 14:20:02;;;;;;;1.55;0.70;;;;;;;;;;5066922;28;20014;-93
2021/11/22 14:22:35;;;;;;;4.20;0.50;;;;;;;;;;5033345;28;20024;-96
2021/11/22 14:25:00;;;;;;;0.85;0.45;;;;;;;;;;5033526;28;20059;-95
2021/11/22 14:27:26;;;;;;;1.85;0.73;;;;;;;;;;5066913;28;20385;-95
2021/11/22 14:29:56;;;;;;;3.67;0.63;;;;;;;;;;5033655;28;20013;-94
2021/11/22 14:32:31;;;;;;;2.15;0.70;;;;;;;;;;5033302;28;20052;-94
2021/11/22 14:35:09;;;;;;;1.33;0.47;;;;;;;;;;5067462;28;20025;-94
2021/11/22 14:37:35;;;;;;;3.47;0.85;;;;;;;;;;5033817;28;20028;-95
2021/11/22 14:40:00;;;;;;;1.80;0.50;;;;;;;;;;5066776;28;20017;-95
2021/11/22 14:42:27;;;;;;;2.28;0.50;;;;;;;;;;5039601;28;20024;-96